createdAt,value
2023-02-12T00:02:18.585Z,99.90
2023-02-12T00:04:48.767Z,99.90
2023-02-12T00:09:43.127Z,99.90
2023-02-12T00:14:38.285Z,99.90
2023-02-12T00:19:32.501Z,99.90
2023-02-12T00:22:00.477Z,99.90
2023-02-12T00:26:54.981Z,99.90
2023-02-12T00:29:21.957Z,99.90
2023-02-12T00:31:49.097Z,99.90
2023-02-12T00:41:38.630Z,99.90
2023-02-12T00:46:32.785Z,99.90
2023-02-12T00:51:27.062Z,99.90
2023-02-12T01:01:15.910Z,99.90
2023-02-12T01:03:42.879Z,99.90
2023-02-12T01:06:09.778Z,99.90
2023-02-12T01:08:36.666Z,99.90
2023-02-12T01:11:06.281Z,99.90
2023-02-12T01:13:35.052Z,99.90
2023-02-12T01:16:17.973Z,99.90
2023-02-12T01:18:45.548Z,99.90
2023-02-12T01:21:21.738Z,99.90
2023-02-12T01:23:49.704Z,99.90
2023-02-12T01:26:17.664Z,99.90
2023-02-12T01:28:51.997Z,99.90
2023-02-12T01:31:25.627Z,99.90
2023-02-12T01:33:58.967Z,99.90
2023-02-12T01:36:26.941Z,99.90
2023-02-12T01:41:29.131Z,99.90
2023-02-12T01:44:14.256Z,99.90
2023-02-12T01:49:16.652Z,99.90
2023-02-12T01:51:46.355Z,99.90
2023-02-12T01:54:17.521Z,99.90
2023-02-12T01:56:44.851Z,99.90
2023-02-12T01:59:13.035Z,99.90
2023-02-12T02:01:40.089Z,99.90
2023-02-12T02:04:15.083Z,99.90
2023-02-12T02:06:52.622Z,99.90
2023-02-12T02:09:20.161Z,99.90
2023-02-12T02:12:05.628Z,99.90
2023-02-12T02:14:32.855Z,99.90
2023-02-12T02:17:27.741Z,99.90
2023-02-12T02:20:22.997Z,99.90
2023-02-12T02:23:08.722Z,99.90
2023-02-12T02:25:58.086Z,99.90
2023-02-12T02:28:53.421Z,99.90
2023-02-12T02:31:38.137Z,99.90
2023-02-12T02:34:20.283Z,99.90
2023-02-12T02:37:00.029Z,99.90
2023-02-12T02:39:48.627Z,99.90
2023-02-12T02:42:32.302Z,99.90
2023-02-12T02:45:18.838Z,99.90
2023-02-12T02:47:55.390Z,99.90
2023-02-12T02:50:27.088Z,99.90
2023-02-12T02:53:02.021Z,99.90
2023-02-12T02:55:47.134Z,99.90
2023-02-12T02:58:16.510Z,99.90
2023-02-12T03:00:53.794Z,99.90
2023-02-12T03:03:26.376Z,99.90
2023-02-12T03:05:59.309Z,99.90
2023-02-12T03:08:34.384Z,99.90
2023-02-12T03:11:20.985Z,99.90
2023-02-12T03:13:52.683Z,99.90
2023-02-12T03:16:27.616Z,99.90
2023-02-12T03:19:02.453Z,99.90
2023-02-12T03:21:35.392Z,99.90
2023-02-12T03:24:15.943Z,99.90
2023-02-12T03:26:50.796Z,99.90
2023-02-12T03:29:17.893Z,99.90
2023-02-12T03:31:56.786Z,99.90
2023-02-12T03:34:50.634Z,99.90
2023-02-12T03:37:25.106Z,99.90
2023-02-12T03:39:58.391Z,99.90
2023-02-12T03:42:39.555Z,99.90
2023-02-12T03:45:28.794Z,99.90
2023-02-12T03:48:04.709Z,99.90
2023-02-12T03:50:37.529Z,99.90
2023-02-12T03:53:06.080Z,99.90
2023-02-12T03:55:37.943Z,99.90
2023-02-12T03:58:09.532Z,99.90
2023-02-12T04:00:38.818Z,99.90
2023-02-12T04:03:07.159Z,99.90
2023-02-12T04:08:04.393Z,99.90
2023-02-12T04:11:11.677Z,99.90
2023-02-12T04:14:00.938Z,99.90
2023-02-12T04:16:40.992Z,99.90
2023-02-12T04:19:13.063Z,99.90
2023-02-12T04:21:58.358Z,99.90
2023-02-12T04:25:22.272Z,99.90
2023-02-12T04:28:01.020Z,99.90
2023-02-12T04:30:37.820Z,99.90
2023-02-12T04:33:07.208Z,99.90
2023-02-12T04:35:47.129Z,99.90
2023-02-12T04:38:19.929Z,99.90
2023-02-12T04:40:48.209Z,99.90
2023-02-12T04:48:10.707Z,99.90
2023-02-12T04:50:42.845Z,99.90
2023-02-12T04:53:10.821Z,99.90
2023-02-12T04:55:38.021Z,99.90
2023-02-12T04:58:05.691Z,99.90
2023-02-12T05:03:00.113Z,99.90
2023-02-12T05:05:27.619Z,99.90
2023-02-12T05:07:54.473Z,99.90
2023-02-12T05:10:21.395Z,99.90
2023-02-12T05:12:48.202Z,99.90
2023-02-12T05:15:15.258Z,99.90
2023-02-12T05:20:10.585Z,99.90
2023-02-12T05:22:37.560Z,99.90
2023-02-12T05:25:05.732Z,99.90
2023-02-12T05:29:59.870Z,99.90
2023-02-12T05:39:50.488Z,99.90
2023-02-12T05:44:45.196Z,99.90
2023-02-12T05:47:12.031Z,99.90
2023-02-12T05:49:38.880Z,99.90
2023-02-12T05:54:33.010Z,99.90
2023-02-12T05:56:59.864Z,99.90
2023-02-12T06:01:54.002Z,99.90
2023-02-12T06:04:27.196Z,99.90
2023-02-12T06:06:55.859Z,99.90
2023-02-12T06:09:23.638Z,99.90
2023-02-12T06:11:50.528Z,99.90
2023-02-12T06:14:19.643Z,99.90
2023-02-12T06:16:48.831Z,99.90
2023-02-12T06:19:16.275Z,99.90
2023-02-12T06:24:13.626Z,99.90
2023-02-12T06:29:08.266Z,99.90
2023-02-12T06:31:36.909Z,99.90
2023-02-12T06:34:06.730Z,99.90
2023-02-12T06:39:02.778Z,99.90
2023-02-12T06:41:30.207Z,99.90
2023-02-12T06:48:56.601Z,99.90
2023-02-12T06:51:23.963Z,99.90
2023-02-12T06:53:52.326Z,99.90
2023-02-12T06:56:20.483Z,99.90
2023-02-12T06:58:52.541Z,99.90
2023-02-12T07:01:22.900Z,99.90
2023-02-12T07:03:51.511Z,99.90
2023-02-12T07:06:18.886Z,99.90
2023-02-12T07:08:46.089Z,99.90
2023-02-12T07:11:13.204Z,99.90
2023-02-12T07:13:44.679Z,99.90
2023-02-12T07:16:17.191Z,99.90
2023-02-12T07:18:44.923Z,99.90
2023-02-12T07:21:13.604Z,99.90
2023-02-12T07:26:11.945Z,99.90
2023-02-12T07:28:39.974Z,99.90
2023-02-12T07:31:21.988Z,99.90
2023-02-12T07:36:18.710Z,99.90
2023-02-12T07:38:45.868Z,99.90
2023-02-12T07:41:24.350Z,99.90
2023-02-12T07:43:56.926Z,99.90
2023-02-12T07:46:30.094Z,99.90
2023-02-12T07:48:59.194Z,99.90
2023-02-12T07:51:27.686Z,99.90
2023-02-12T07:53:54.922Z,99.90
2023-02-12T07:56:24.803Z,99.90
2023-02-12T07:58:53.610Z,99.90
2023-02-12T08:01:23.501Z,99.90
2023-02-12T08:03:51.163Z,99.90
2023-02-12T08:06:20.610Z,99.90
2023-02-12T08:08:47.993Z,99.90
2023-02-12T08:11:15.794Z,99.90
2023-02-12T08:16:20.681Z,99.90
2023-02-12T08:21:21.178Z,99.90
2023-02-12T08:23:50.744Z,99.90
2023-02-12T08:26:32.422Z,99.90
2023-02-12T08:29:08.357Z,99.90
2023-02-12T08:31:40.876Z,99.90
2023-02-12T08:34:15.404Z,99.20
2023-02-12T08:36:42.697Z,95.50
2023-02-12T08:41:37.773Z,93.00
2023-02-12T08:44:05.642Z,92.10
2023-02-12T08:46:35.051Z,91.80
2023-02-12T08:49:12.120Z,90.20
2023-02-12T08:51:41.301Z,90.00
2023-02-12T08:54:12.647Z,85.90
2023-02-12T08:56:40.496Z,83.10
2023-02-12T08:59:09.302Z,83.50
2023-02-12T09:01:43.649Z,80.90
2023-02-12T09:04:21.550Z,80.30
2023-02-12T09:09:16.242Z,75.70
2023-02-12T09:11:43.299Z,75.10
2023-02-12T09:14:13.601Z,72.20
2023-02-12T09:16:41.272Z,72.40
2023-02-12T09:19:09.680Z,69.10
2023-02-12T09:24:03.874Z,68.60
2023-02-12T09:26:31.203Z,73.30
2023-02-12T09:28:59.377Z,69.60
2023-02-12T09:31:29.283Z,69.50
2023-02-12T09:34:00.716Z,71.00
2023-02-12T09:36:27.911Z,68.40
2023-02-12T09:43:53.077Z,66.90
2023-02-12T09:46:39.529Z,65.90
2023-02-12T09:49:26.530Z,68.00
2023-02-12T09:51:55.164Z,68.00
2023-02-12T09:54:26.012Z,67.10
2023-02-12T09:56:59.431Z,66.20
2023-02-12T10:04:22.667Z,66.40
2023-02-12T10:07:12.607Z,69.50
2023-02-12T10:09:45.706Z,66.10
2023-02-12T10:12:28.264Z,67.80
2023-02-12T10:15:16.021Z,67.20
2023-02-12T10:17:52.891Z,66.10
2023-02-12T10:20:58.712Z,66.60
2023-02-12T10:23:41.829Z,65.40
2023-02-12T10:26:32.305Z,65.60
2023-02-12T10:29:09.522Z,64.70
2023-02-12T10:31:40.924Z,64.20
2023-02-12T10:34:32.749Z,64.40
2023-02-12T10:37:12.683Z,63.80
2023-02-12T10:39:48.804Z,63.90
2023-02-12T10:42:22.128Z,64.50
2023-02-12T10:47:20.631Z,64.30
2023-02-12T10:50:02.317Z,63.40
2023-02-12T10:52:48.608Z,59.60
2023-02-12T10:55:36.962Z,60.60
2023-02-12T10:58:05.120Z,63.00
2023-02-12T11:00:33.441Z,64.10
2023-02-12T11:03:12.608Z,63.60
2023-02-12T11:05:42.463Z,61.60
2023-02-12T11:08:32.153Z,62.80
2023-02-12T11:11:27.819Z,61.20
2023-02-12T11:14:16.392Z,62.00
2023-02-12T11:16:58.882Z,62.10
2023-02-12T11:19:32.015Z,61.80
2023-02-12T11:22:11.654Z,60.20
2023-02-12T11:24:38.831Z,61.20
2023-02-12T11:27:31.774Z,59.10
2023-02-12T11:30:30.532Z,59.20
2023-02-12T11:33:39.019Z,60.40
2023-02-12T11:36:15.347Z,61.90
2023-02-12T11:38:52.815Z,60.10
2023-02-12T11:41:41.356Z,58.70
2023-02-12T11:44:28.655Z,59.40
2023-02-12T11:47:09.637Z,60.00
2023-02-12T11:49:50.523Z,57.90
2023-02-12T11:52:22.253Z,58.90
2023-02-12T11:54:51.582Z,62.00
2023-02-12T11:57:42.848Z,62.80
2023-02-12T12:00:38.652Z,59.90
2023-02-12T12:03:20.308Z,62.90
2023-02-12T12:05:51.419Z,60.10
2023-02-12T12:08:29.568Z,59.90
2023-02-12T12:11:28.257Z,59.90
2023-02-12T12:14:16.760Z,61.10
2023-02-12T12:17:09.461Z,60.20
2023-02-12T12:19:54.925Z,60.20
2023-02-12T12:22:42.480Z,60.30
2023-02-12T12:25:30.969Z,58.40
2023-02-12T12:28:17.593Z,59.60
2023-02-12T12:30:47.577Z,61.80
2023-02-12T12:33:46.529Z,62.80
2023-02-12T12:36:13.491Z,62.90
2023-02-12T12:39:01.470Z,61.30
2023-02-12T12:41:42.393Z,61.80
2023-02-12T12:44:37.177Z,60.10
2023-02-12T12:47:19.068Z,63.50
2023-02-12T12:49:54.652Z,62.90
2023-02-12T12:52:24.729Z,63.40
2023-02-12T12:55:12.724Z,61.70
2023-02-12T12:57:47.013Z,62.30
2023-02-12T13:00:31.988Z,61.40
2023-02-12T13:03:17.229Z,62.60
2023-02-12T13:05:52.049Z,62.50
2023-02-12T13:09:16.212Z,64.60
2023-02-12T13:12:16.656Z,65.40
2023-02-12T13:15:04.586Z,63.30
2023-02-12T13:17:37.016Z,66.00
2023-02-12T13:20:18.367Z,67.00
2023-02-12T13:22:50.597Z,64.00
2023-02-12T13:25:42.756Z,63.40
2023-02-12T13:28:41.933Z,64.30
2023-02-12T13:31:32.496Z,65.70
2023-02-12T13:34:04.826Z,63.80
2023-02-12T13:36:35.065Z,65.90
2023-02-12T13:39:36.640Z,65.70
2023-02-12T13:42:43.858Z,70.50
2023-02-12T13:45:29.573Z,69.50
2023-02-12T13:48:18.016Z,67.50
2023-02-12T13:51:00.998Z,66.40
2023-02-12T13:53:47.485Z,65.60
2023-02-12T13:56:31.875Z,70.50
2023-02-12T14:01:49.614Z,70.20
2023-02-12T14:04:19.687Z,70.10
2023-02-12T14:07:14.032Z,70.70
2023-02-12T14:09:42.639Z,76.70
2023-02-12T14:12:15.045Z,77.00
2023-02-12T14:14:48.707Z,78.10
2023-02-12T14:17:30.949Z,74.60
2023-02-12T14:20:30.509Z,74.30
2023-02-12T14:23:20.831Z,75.30
2023-02-12T14:25:58.789Z,79.30
2023-02-12T14:28:40.233Z,77.00
2023-02-12T14:31:27.397Z,77.00
2023-02-12T14:34:06.288Z,81.80
2023-02-12T14:39:28.018Z,78.00
2023-02-12T14:42:15.683Z,82.50
2023-02-12T14:44:55.026Z,79.70
2023-02-12T14:47:30.526Z,85.30
2023-02-12T14:50:07.387Z,81.00
2023-02-12T14:52:40.917Z,83.70
2023-02-12T14:55:31.027Z,82.90
2023-02-12T14:58:07.636Z,89.90
2023-02-12T15:00:40.463Z,86.90
2023-02-12T15:03:14.006Z,91.40
2023-02-12T15:06:05.876Z,89.00
2023-02-12T15:08:48.936Z,90.40
2023-02-12T15:11:38.667Z,90.40
2023-02-12T15:14:23.982Z,92.60
2023-02-12T15:17:14.988Z,91.00
2023-02-12T15:19:51.313Z,92.10
2023-02-12T15:22:25.151Z,92.10
2023-02-12T15:24:52.044Z,94.60
2023-02-12T15:27:20.548Z,92.80
2023-02-12T15:29:51.202Z,93.00
2023-02-12T15:32:27.620Z,93.50
2023-02-12T15:34:55.619Z,95.90
2023-02-12T15:37:29.128Z,96.50
2023-02-12T15:39:59.533Z,96.90
2023-02-12T15:42:38.466Z,95.20
2023-02-12T15:45:13.962Z,96.40
2023-02-12T15:47:41.885Z,98.50
2023-02-12T15:50:18.270Z,98.80
2023-02-12T15:52:47.501Z,98.40
2023-02-12T15:55:21.636Z,99.50
2023-02-12T15:57:59.734Z,99.90
2023-02-12T16:00:47.625Z,99.00
2023-02-12T16:03:33.246Z,99.90
2023-02-12T16:06:16.672Z,99.90
2023-02-12T16:08:46.019Z,99.90
2023-02-12T16:11:16.875Z,99.90
2023-02-12T16:14:00.820Z,99.90
2023-02-12T16:16:31.283Z,99.90
2023-02-12T16:19:24.443Z,99.90
2023-02-12T16:22:23.080Z,99.90
2023-02-12T16:24:52.730Z,99.90
2023-02-12T16:27:23.195Z,99.90
2023-02-12T16:29:53.445Z,99.90
2023-02-12T16:32:41.867Z,99.90
2023-02-12T16:35:12.362Z,99.90
2023-02-12T16:37:39.206Z,99.90
2023-02-12T16:40:18.028Z,99.90
2023-02-12T16:42:47.866Z,99.90
2023-02-12T16:45:26.950Z,99.90
2023-02-12T16:48:23.369Z,99.90
2023-02-12T16:50:56.093Z,99.90
2023-02-12T16:53:45.639Z,99.90
2023-02-12T16:56:16.029Z,99.90
2023-02-12T16:58:43.250Z,99.90
2023-02-12T17:03:38.901Z,99.90
2023-02-12T17:08:33.052Z,99.90
2023-02-12T17:11:00.372Z,99.90
2023-02-12T17:13:27.286Z,99.90
2023-02-12T17:15:57.316Z,99.90
2023-02-12T17:18:25.448Z,99.90
2023-02-12T17:20:56.157Z,99.90
2023-02-12T17:28:18.208Z,99.90
2023-02-12T17:30:45.165Z,99.90
2023-02-12T17:33:12.792Z,99.90
2023-02-12T17:38:07.367Z,99.90
2023-02-12T17:40:38.952Z,99.90
2023-02-12T17:43:06.533Z,99.90
2023-02-12T17:45:33.866Z,99.90
2023-02-12T17:55:22.647Z,99.90
2023-02-12T17:57:53.575Z,99.90
2023-02-12T18:00:21.221Z,99.90
2023-02-12T18:02:49.010Z,99.90
2023-02-12T18:07:43.335Z,99.90
2023-02-12T18:10:11.746Z,99.90
2023-02-12T18:12:38.784Z,99.90
2023-02-12T18:15:07.550Z,99.90
2023-02-12T18:17:35.770Z,99.90
2023-02-12T18:20:03.035Z,99.90
2023-02-12T18:22:29.933Z,99.90
2023-02-12T18:32:19.182Z,99.90
2023-02-12T18:37:13.990Z,99.90
2023-02-12T18:39:40.915Z,99.90
2023-02-12T18:42:08.821Z,99.90
2023-02-12T18:47:03.432Z,99.90
2023-02-12T18:54:25.124Z,99.90
2023-02-12T18:56:53.441Z,99.90
2023-02-12T18:59:21.243Z,99.90
2023-02-12T19:04:20.208Z,99.90
2023-02-12T19:06:50.405Z,99.90
2023-02-12T19:09:20.285Z,99.90
2023-02-12T19:11:49.157Z,99.90
2023-02-12T19:14:18.033Z,99.90
2023-02-12T19:16:46.002Z,99.90
2023-02-12T19:19:14.556Z,99.90
2023-02-12T19:26:36.557Z,99.90
2023-02-12T19:29:05.041Z,99.90
2023-02-12T19:31:37.978Z,99.90
2023-02-12T19:34:06.013Z,99.90
2023-02-12T19:36:36.255Z,99.90
2023-02-12T19:39:04.540Z,99.90
2023-02-12T19:41:32.916Z,99.90
2023-02-12T19:44:01.518Z,99.90
2023-02-12T19:46:31.005Z,99.90
2023-02-12T19:49:00.314Z,99.90
2023-02-12T19:51:29.900Z,99.90
2023-02-12T19:54:04.874Z,99.90
2023-02-12T19:56:31.831Z,99.90
2023-02-12T19:58:59.020Z,99.90
2023-02-12T20:06:24.252Z,99.90
2023-02-12T20:11:25.359Z,99.90
2023-02-12T20:13:52.897Z,99.90
2023-02-12T20:16:22.189Z,99.90
2023-02-12T20:18:51.859Z,99.90
2023-02-12T20:21:22.283Z,99.90
2023-02-12T20:23:49.563Z,99.90
2023-02-12T20:26:17.711Z,99.90
2023-02-12T20:31:20.922Z,99.90
2023-02-12T20:33:48.741Z,99.90
2023-02-12T20:38:44.806Z,99.90
2023-02-12T20:41:12.284Z,99.90
2023-02-12T20:46:09.600Z,99.90
2023-02-12T20:48:37.338Z,99.90
2023-02-12T20:51:09.309Z,99.90
2023-02-12T20:56:06.979Z,99.90
2023-02-12T20:58:34.220Z,99.90
2023-02-12T21:01:06.247Z,99.90
2023-02-12T21:06:01.490Z,99.90
2023-02-12T21:11:03.904Z,99.90
2023-02-12T21:13:30.749Z,99.90
2023-02-12T21:16:05.427Z,99.90
2023-02-12T21:21:13.660Z,99.90
2023-02-12T21:23:41.110Z,99.90
2023-02-12T21:26:11.225Z,99.90
2023-02-12T21:28:39.062Z,99.90
2023-02-12T21:31:11.984Z,99.90
2023-02-12T21:33:40.781Z,99.90
2023-02-12T21:36:10.212Z,99.90
2023-02-12T21:38:40.806Z,99.90
2023-02-12T21:41:15.788Z,99.90
2023-02-12T21:43:45.492Z,99.90
2023-02-12T21:46:12.964Z,99.90
2023-02-12T21:51:16.498Z,99.90
2023-02-12T21:56:10.571Z,99.90
2023-02-12T22:01:12.520Z,99.90
2023-02-12T22:06:08.858Z,99.90
2023-02-12T22:08:36.617Z,99.90
2023-02-12T22:11:05.209Z,99.90
2023-02-12T22:13:32.986Z,99.90
2023-02-12T22:16:36.416Z,99.90
2023-02-12T22:19:04.038Z,99.90
2023-02-12T22:21:35.170Z,99.90
2023-02-12T22:24:04.417Z,99.90
2023-02-12T22:26:32.699Z,99.90
2023-02-12T22:29:08.519Z,99.90
2023-02-12T22:31:37.551Z,99.90
2023-02-12T22:34:07.255Z,99.90
2023-02-12T22:36:36.705Z,99.90
2023-02-12T22:41:31.695Z,99.90
2023-02-12T22:44:00.789Z,99.90
2023-02-12T22:51:25.658Z,99.90
2023-02-12T22:53:53.254Z,99.90
2023-02-12T22:56:20.503Z,99.90
2023-02-12T23:01:18.771Z,99.90
2023-02-12T23:03:46.330Z,99.90
2023-02-12T23:06:23.130Z,99.90
2023-02-12T23:08:56.373Z,99.90
2023-02-12T23:11:24.666Z,99.90
2023-02-12T23:13:52.470Z,99.90
2023-02-12T23:18:47.392Z,99.90
2023-02-12T23:21:14.474Z,99.90
2023-02-12T23:26:09.000Z,99.90
2023-02-12T23:28:35.893Z,99.90
2023-02-12T23:33:30.439Z,99.90
2023-02-12T23:35:57.281Z,99.90
2023-02-12T23:38:24.085Z,99.90
2023-02-12T23:45:46.896Z,99.90
2023-02-12T23:50:41.956Z,99.90
2023-02-12T23:53:10.219Z,99.90
2023-02-12T23:55:38.119Z,99.90
2023-02-12T23:58:06.014Z,99.90
